Time;durP1;ratioP1;P1;durP2;ratioP2;P2;SDS_P1;SDS_P2;PMS_P1;PMS_P2;Temp;Humidity;BMP_temperature;BMP_pressure;BME280_temperature;BME280_humidity;BME280_pressure;Samples;Min_cycle;Max_cycle;Signal;HPM_P1;HPM_P2
2022/04/25 00:00:09;;;;;;;8.57;7.88;;;;;;;7.60;100.00;97326.59;10331645;28;20049;-80
2022/04/25 00:05:17;;;;;;;8.50;7.70;;;;;;;7.63;100.00;97337.00;10355891;28;20403;-80
2022/04/25 00:10:20;;;;;;;7.43;6.78;;;;;;;7.64;100.00;97338.66;10350691;28;20052;-80
2022/04/25 00:15:23;;;;;;;8.60;7.90;;;;;;;7.65;100.00;97351.06;10352068;28;21380;-80
2022/04/25 00:20:27;;;;;;;8.43;7.63;;;;;;;7.64;100.00;97365.47;10356576;28;20057;-80
2022/04/25 00:25:30;;;;;;;9.88;8.88;;;;;;;7.65;100.00;97366.28;10342518;28;20054;-80
2022/04/25 00:30:33;;;;;;;9.10;8.30;;;;;;;7.67;100.00;97354.41;10352150;28;20042;-80
2022/04/25 00:35:37;;;;;;;10.32;9.43;;;;;;;7.60;100.00;97353.41;10356160;28;20517;-81
2022/04/25 00:40:41;;;;;;;12.20;11.10;;;;;;;7.57;100.00;97364.47;10355508;28;20053;-80
2022/04/25 00:45:44;;;;;;;12.93;11.65;;;;;;;7.59;100.00;97372.34;10342510;28;20085;-82
2022/04/25 00:50:49;;;;;;;13.50;12.25;;;;;;;7.62;100.00;97362.13;10352156;28;20049;-82
2022/04/25 00:55:52;;;;;;;12.60;11.50;;;;;;;7.57;100.00;97351.09;10338169;28;20045;-80
2022/04/25 01:00:55;;;;;;;15.52;14.15;;;;;;;7.50;100.00;97350.06;10345324;28;20058;-80
2022/04/25 01:06:00;;;;;;;16.45;14.95;;;;;;;7.49;100.00;97351.06;10329935;28;20070;-80
2022/04/25 01:11:03;;;;;;;18.38;16.67;;;;;;;7.59;100.00;97358.94;10347406;28;20049;-79
2022/04/25 01:16:06;;;;;;;19.23;17.48;;;;;;;7.57;100.00;97359.13;10350962;28;20060;-79
2022/04/25 01:21:13;;;;;;;19.13;17.33;;;;;;;7.60;100.00;97364.13;10363316;28;20067;-79
2022/04/25 01:31:38;;;;;;;20.38;18.55;;;;;;;7.60;100.00;97369.50;10361664;28;20080;-80
2022/04/25 01:36:41;;;;;;;19.80;18.00;;;;;;;7.61;100.00;97379.19;10364541;28;20134;-81
2022/04/25 01:41:45;;;;;;;20.20;18.38;;;;;;;7.62;100.00;97375.53;10198746;28;5002238;-81
2022/04/25 01:46:48;;;;;;;19.85;18.05;;;;;;;7.61;100.00;97389.09;10356403;28;20050;-81
2022/04/25 01:51:51;;;;;;;19.15;17.45;;;;;;;7.65;100.00;97385.06;10360514;28;20056;-79
2022/04/25 01:56:57;;;;;;;20.58;18.67;;;;;;;7.62;100.00;97378.19;10371522;28;20065;-81
2022/04/25 02:02:01;;;;;;;21.98;19.90;;;;;;;7.64;100.00;97391.47;10360566;28;20140;-80
2022/04/25 02:07:06;;;;;;;22.02;20.13;;;;;;;7.65;100.00;97385.06;10372371;28;20053;-81
2022/04/25 02:12:11;;;;;;;24.15;21.85;;;;;;;7.65;100.00;97388.59;10359653;28;20049;-78
2022/04/25 02:17:15;;;;;;;25.40;23.10;;;;;;;7.62;100.00;97388.91;10360770;28;20481;-80
2022/04/25 02:22:19;;;;;;;23.45;21.35;;;;;;;7.64;100.00;97396.81;10358880;28;20501;-81
2022/04/25 02:27:24;;;;;;;19.80;18.00;;;;;;;7.64;100.00;97397.63;10339929;28;20049;-80
2022/04/25 02:32:28;;;;;;;17.65;15.98;;;;;;;7.66;100.00;97401.00;10357024;28;20050;-81
2022/04/25 02:37:31;;;;;;;17.90;16.13;;;;;;;7.68;100.00;97399.00;10343510;28;20137;-80
2022/04/25 02:42:36;;;;;;;17.77;16.08;;;;;;;7.70;100.00;97401.50;10359035;28;20050;-80
2022/04/25 02:47:41;;;;;;;17.35;15.65;;;;;;;7.68;100.00;97404.34;10356377;28;20521;-79
2022/04/25 02:52:44;;;;;;;17.00;15.40;;;;;;;7.69;100.00;97408.72;10359625;28;20694;-82
2022/04/25 02:57:48;;;;;;;19.02;17.10;;;;;;;7.65;100.00;97410.03;10362567;28;20030;-79
2022/04/25 03:02:51;;;;;;;21.48;19.27;;;;;;;7.67;100.00;97410.72;10374773;28;20116;-80
2022/04/25 03:07:55;;;;;;;19.67;17.77;;;;;;;7.65;100.00;97404.69;10353791;28;20131;-83
2022/04/25 03:13:00;;;;;;;20.15;18.02;;;;;;;7.65;100.00;97415.41;10353025;28;20069;-82
2022/04/25 03:18:03;;;;;;;19.88;18.05;;;;;;;7.63;100.00;97419.25;10338969;28;21311;-79
2022/04/25 03:23:06;;;;;;;21.63;19.33;;;;;;;7.60;100.00;97423.09;10347357;28;20056;-82
2022/04/25 03:28:11;;;;;;;22.95;20.70;;;;;;;7.60;100.00;97423.09;10337326;28;20057;-82
2022/04/25 03:33:15;;;;;;;22.55;20.25;;;;;;;7.51;100.00;97429.47;10352556;28;20120;-81
2022/04/25 03:38:21;;;;;;;21.58;19.27;;;;;;;7.56;100.00;97422.59;10358851;28;20042;-81
2022/04/25 03:43:26;;;;;;;21.38;19.08;;;;;;;7.51;100.00;97433.00;10354025;28;20074;-80
2022/04/25 03:48:29;;;;;;;17.25;15.55;;;;;;;7.44;100.00;97429.28;10355032;28;20036;-80
2022/04/25 03:53:31;;;;;;;19.10;17.20;;;;;;;7.40;100.00;97444.03;10352844;28;20041;-80
2022/04/25 03:58:36;;;;;;;19.40;17.30;;;;;;;7.29;100.00;97457.75;10355007;28;20753;-77
2022/04/25 04:03:39;;;;;;;20.10;15.35;;;;;;;7.24;100.00;97455.53;10351485;28;20117;-78
2022/04/25 04:08:42;;;;;;;18.35;13.88;;;;;;;7.11;100.00;97471.25;10352847;28;20053;-78
2022/04/25 04:13:47;;;;;;;17.35;11.60;;;;;;;7.01;100.00;97469.53;10340162;28;20042;-78
2022/04/25 04:18:51;;;;;;;11.90;9.18;;;;;;;7.00;100.00;97481.25;10365517;28;20049;-78
2022/04/25 04:23:53;;;;;;;12.77;8.93;;;;;;;6.92;100.00;97482.09;10362054;28;20494;-78
2022/04/25 04:28:58;;;;;;;9.13;8.00;;;;;;;6.76;100.00;97484.66;10347950;28;20525;-84
2022/04/25 04:34:01;;;;;;;9.80;8.38;;;;;;;6.66;100.00;97492.81;10352144;28;20050;-82
2022/04/25 04:39:04;;;;;;;9.40;7.97;;;;;;;6.49;100.00;97521.31;10362687;28;20042;-84
2022/04/25 04:44:08;;;;;;;10.40;8.30;;;;;;;6.35;100.00;97513.88;10349023;28;20046;-80
2022/04/25 04:49:11;;;;;;;12.00;9.50;;;;;;;6.32;100.00;97528.41;10363683;28;20462;-80
2022/04/25 04:54:14;;;;;;;13.60;9.98;;;;;;;6.29;100.00;97542.09;10351339;28;20814;-82
2022/04/25 04:59:18;;;;;;;11.43;9.40;;;;;;;6.16;100.00;97553.19;10379665;28;20176;-80
2022/04/25 05:04:21;;;;;;;12.35;10.02;;;;;;;6.13;100.00;97557.03;10376809;28;20041;-79
2022/04/25 05:09:24;;;;;;;13.35;9.60;;;;;;;6.10;100.00;97565.34;10386986;28;20033;-79
2022/04/25 05:14:30;;;;;;;13.95;9.35;;;;;;;6.05;100.00;97558.78;10351959;28;20084;-84
2022/04/25 05:19:34;;;;;;;12.18;10.50;;;;;;;6.02;100.00;97573.31;10338678;28;20045;-83
2022/04/25 05:24:37;;;;;;;12.23;10.30;;;;;;;5.98;100.00;97583.44;10337639;28;20069;-83
2022/04/25 05:29:42;;;;;;;12.43;9.77;;;;;;;5.95;100.00;97577.53;10355893;28;20438;-80
2022/04/25 05:34:45;;;;;;;14.80;13.20;;;;;;;5.87;100.00;97591.69;10331846;28;20077;-80
2022/04/25 05:39:49;;;;;;;11.77;10.30;;;;;;;5.81;100.00;97593.13;10350943;28;20037;-82
2022/04/25 05:44:56;;;;;;;13.25;10.48;;;;;;;5.82;100.00;97600.13;10350457;28;20050;-82
2022/04/25 05:55:23;;;;;;;10.25;8.43;;;;;;;5.70;100.00;97612.06;10352175;28;20112;-83
2022/04/25 06:00:54;;;;;;;11.07;8.48;;;;;;;5.70;100.00;97618.22;10379066;28;21080;-81
2022/04/25 06:05:59;;;;;;;10.75;9.23;;;;;;;5.62;100.00;97628.84;10368645;28;20058;-83
2022/04/25 06:11:02;;;;;;;13.25;10.90;;;;;;;5.58;100.00;97637.31;10336290;28;20077;-83
2022/04/25 06:16:07;;;;;;;16.83;12.77;;;;;;;5.55;100.00;97644.63;10351909;28;20064;-81
2022/04/25 06:21:10;;;;;;;18.75;14.25;;;;;;;5.54;100.00;97640.25;10349621;28;20056;-83
2022/04/25 06:26:13;;;;;;;15.00;12.60;;;;;;;5.59;100.00;97652.31;10353652;28;20056;-82
2022/04/25 06:31:19;;;;;;;12.98;11.52;;;;;;;5.63;100.00;97657.25;10340412;28;20052;-80
2022/04/25 06:36:22;;;;;;;11.77;10.55;;;;;;;5.66;100.00;97664.09;10350936;28;20125;-82
2022/04/25 06:41:28;;;;;;;10.60;9.27;;;;;;;5.74;100.00;97668.72;10352350;28;20768;-83
2022/04/25 06:46:33;;;;;;;9.02;7.75;;;;;;;5.73;100.00;97670.53;10340608;28;20499;-83
2022/04/25 06:51:37;;;;;;;11.90;9.38;;;;;;;5.73;100.00;97664.34;10336716;28;20042;-83
2022/04/25 06:56:41;;;;;;;14.30;11.90;;;;;;;5.75;100.00;97667.72;10354906;28;20092;-83
2022/04/25 07:01:46;;;;;;;15.73;13.25;;;;;;;5.74;100.00;97664.19;10343978;28;20507;-82
2022/04/25 07:06:51;;;;;;;17.05;13.95;;;;;;;5.81;100.00;97667.97;10333172;28;20921;-81
2022/04/25 07:11:54;;;;;;;17.08;14.38;;;;;;;5.75;100.00;97679.25;10354188;28;20057;-83
2022/04/25 07:17:01;;;;;;;23.08;17.45;;;;;;;5.82;100.00;97687.50;10337280;28;20050;-83
2022/04/25 07:32:47;;;;;;;28.60;21.38;;;;;;;5.94;100.00;97710.38;10348314;28;20503;-78
2022/04/25 07:37:51;;;;;;;30.88;22.65;;;;;;;5.94;100.00;97722.91;10356725;28;20054;-78
2022/04/25 07:42:55;;;;;;;39.35;24.25;;;;;;;5.88;100.00;97718.16;10359848;28;20137;-81
2022/04/25 07:48:00;;;;;;;48.03;28.27;;;;;;;5.86;100.00;97731.69;10359273;28;20399;-84
2022/04/25 07:53:03;;;;;;;58.13;32.17;;;;;;;5.82;100.00;97740.97;10369832;28;20137;-80
2022/04/25 07:58:08;;;;;;;46.08;27.73;;;;;;;5.76;100.00;97754.94;10366407;28;20078;-81
2022/04/25 08:03:12;;;;;;;42.40;26.55;;;;;;;5.83;100.00;97756.84;10371282;28;20045;-81
2022/04/25 08:08:15;;;;;;;39.05;25.92;;;;;;;5.95;100.00;97764.69;10361869;28;20065;-82
2022/04/25 08:18:40;;;;;;;36.17;24.85;;;;;;;6.10;100.00;97771.25;10369235;28;20053;-82
2022/04/25 08:23:45;;;;;;;36.70;24.65;;;;;;;6.10;100.00;97781.94;10355824;28;20565;-81
2022/04/25 08:28:48;;;;;;;38.05;25.98;;;;;;;6.22;100.00;97781.75;10342290;28;20050;-80
2022/04/25 08:34:08;;;;;;;42.30;29.35;;;;;;;6.19;100.00;97792.72;10352398;28;20051;-80
2022/04/25 08:39:11;;;;;;;42.80;28.25;;;;;;;6.12;100.00;97800.50;10371872;28;20068;-80
2022/04/25 08:44:17;;;;;;;43.58;31.20;;;;;;;6.28;100.00;97808.75;10359559;28;20038;-83
2022/04/25 08:49:22;;;;;;;33.58;25.27;;;;;;;6.42;100.00;97796.69;10344872;28;20133;-82
2022/04/25 08:54:36;;;;;;;32.65;24.25;;;;;;;6.47;100.00;97805.13;10367560;28;20049;-82
2022/04/25 08:59:40;;;;;;;34.88;23.95;;;;;;;6.57;100.00;97796.19;10376869;28;20467;-82
2022/04/25 09:04:46;;;;;;;26.98;20.17;;;;;;;6.65;100.00;97803.44;10343609;28;20046;-84
2022/04/25 09:09:49;;;;;;;24.85;20.30;;;;;;;6.66;100.00;97805.97;10347347;28;20045;-79
2022/04/25 09:14:54;;;;;;;21.77;18.23;;;;;;;6.77;100.00;97805.75;10356337;28;20104;-80
2022/04/25 09:20:19;;;;;;;20.52;17.00;;;;;;;6.73;100.00;97812.41;10362286;28;20441;-81
2022/04/25 09:25:23;;;;;;;21.67;17.90;;;;;;;6.77;100.00;97821.81;10344171;28;20490;-82
2022/04/25 09:30:57;;;;;;;23.77;18.80;;;;;;;6.73;100.00;97832.97;10341137;28;20041;-82
2022/04/25 09:36:05;;;;;;;21.38;18.33;;;;;;;6.85;100.00;97825.56;10347410;28;20038;-82
2022/04/25 09:41:10;;;;;;;22.90;19.65;;;;;;;6.85;100.00;97830.94;10338427;28;20053;-81
2022/04/25 09:46:14;;;;;;;27.63;20.95;;;;;;;6.81;100.00;97841.09;10356886;28;20054;-82
2022/04/25 09:51:20;;;;;;;28.95;23.13;;;;;;;6.80;100.00;97852.81;10355721;28;20050;-81
2022/04/25 09:56:26;;;;;;;29.25;23.42;;;;;;;6.95;100.00;97850.44;10358915;28;20576;-81
2022/04/25 10:01:31;;;;;;;29.42;23.77;;;;;;;7.04;100.00;97846.00;10352794;28;20049;-79
2022/04/25 10:06:36;;;;;;;28.48;22.38;;;;;;;7.12;100.00;97855.94;10357419;28;20045;-81
2022/04/25 10:11:43;;;;;;;28.92;23.50;;;;;;;7.05;100.00;97859.25;10353703;28;20100;-81
2022/04/25 10:16:49;;;;;;;33.33;26.10;;;;;;;6.91;100.00;97865.97;10354308;28;20050;-80
2022/04/25 10:21:58;;;;;;;36.28;26.27;;;;;;;6.96;100.00;97865.53;10350756;28;20050;-82
2022/04/25 10:27:12;;;;;;;26.60;21.00;;;;;;;6.84;100.00;97878.28;10351808;28;20120;-81
2022/04/25 10:32:21;;;;;;;27.40;21.02;;;;;;;6.94;100.00;97872.84;10368556;28;20136;-82
2022/04/25 10:37:34;;;;;;;25.27;20.33;;;;;;;7.05;100.00;97875.31;10351995;28;20164;-82
2022/04/25 10:48:12;;;;;;;23.05;19.40;;;;;;;7.24;100.00;97884.19;10370956;28;20056;-83
2022/04/25 10:53:19;;;;;;;28.88;21.65;;;;;;;7.45;100.00;97891.09;10364770;28;20053;-81
2022/04/25 10:58:22;;;;;;;27.13;21.73;;;;;;;7.44;100.00;97887.53;10353224;28;20061;-81
2022/04/25 11:03:31;;;;;;;27.23;21.27;;;;;;;7.44;100.00;97878.69;10362104;28;20225;-82
2022/04/25 11:08:40;;;;;;;26.83;22.42;;;;;;;7.47;100.00;97889.06;10370242;28;20046;-83
2022/04/25 11:14:13;;;;;;;26.88;22.42;;;;;;;7.37;100.00;97898.03;10361666;28;20050;-84
2022/04/25 11:19:19;;;;;;;29.70;22.67;;;;;;;7.43;100.00;97899.25;10371274;28;20161;-84
2022/04/25 11:24:35;;;;;;;27.17;21.40;;;;;;;7.51;100.00;97904.72;10356268;28;20828;-83
2022/04/25 11:29:45;;;;;;;27.63;21.58;;;;;;;7.51;100.00;97906.53;10349546;28;20045;-83
2022/04/25 11:34:49;;;;;;;25.02;18.98;;;;;;;7.66;100.00;97931.81;10351704;28;20220;-81
2022/04/25 11:39:59;;;;;;;23.88;18.30;;;;;;;7.62;100.00;97925.06;10358212;28;20145;-85
2022/04/25 11:45:04;;;;;;;20.55;16.52;;;;;;;7.67;100.00;97928.13;10368568;28;20045;-81
2022/04/25 11:50:11;;;;;;;21.23;17.08;;;;;;;7.88;100.00;97929.63;10360998;28;20038;-83
2022/04/25 11:55:17;;;;;;;22.90;16.63;;;;;;;7.98;100.00;97930.38;10406610;28;20069;-79
2022/04/25 12:00:21;;;;;;;16.25;14.55;;;;;;;8.17;100.00;97941.91;10343052;28;20056;-82
2022/04/25 12:05:29;;;;;;;16.45;13.55;;;;;;;8.27;100.00;97939.94;10354452;28;20048;-83
2022/04/25 12:15:58;;;;;;;20.77;16.17;;;;;;;8.20;100.00;97948.78;10326596;28;20065;-81
2022/04/25 12:21:03;;;;;;;19.70;16.55;;;;;;;8.28;100.00;97952.38;10359874;28;20475;-83
2022/04/25 12:26:17;;;;;;;19.48;15.60;;;;;;;8.35;100.00;97957.09;10350710;28;20053;-83
2022/04/25 12:31:21;;;;;;;18.58;15.15;;;;;;;8.35;100.00;97951.72;10366742;28;20045;-80
2022/04/25 12:36:25;;;;;;;17.67;15.05;;;;;;;8.36;100.00;97953.41;10358876;28;20148;-84
2022/04/25 12:41:36;;;;;;;14.20;12.60;;;;;;;8.29;100.00;97950.50;10351853;28;21277;-83
2022/04/25 12:46:40;;;;;;;18.75;16.08;;;;;;;8.25;100.00;97944.63;10376746;28;20046;-82
2022/04/25 12:51:46;;;;;;;18.65;15.10;;;;;;;8.28;100.00;97944.31;10369752;28;20305;-84
2022/04/25 12:56:51;;;;;;;19.10;16.08;;;;;;;8.38;100.00;97946.88;10362250;28;21315;-82
2022/04/25 13:02:04;;;;;;;15.63;14.02;;;;;;;8.55;100.00;97955.88;10359861;28;20136;-83
2022/04/25 13:07:07;;;;;;;14.73;13.13;;;;;;;8.71;100.00;97948.94;10357975;28;20057;-81
2022/04/25 13:12:17;;;;;;;14.75;13.15;;;;;;;8.74;100.00;97956.66;10375875;28;20046;-82
2022/04/25 13:17:20;;;;;;;18.33;16.02;;;;;;;8.89;100.00;97948.84;10357327;28;20772;-81
2022/04/25 13:22:24;;;;;;;18.02;15.65;;;;;;;8.88;100.00;97952.50;10374240;28;20108;-84
2022/04/25 13:27:29;;;;;;;17.20;15.07;;;;;;;9.00;100.00;97963.78;10375730;28;20089;-82
2022/04/25 13:32:32;;;;;;;17.40;14.98;;;;;;;9.08;100.00;97963.84;10361797;28;20042;-84
2022/04/25 13:37:35;;;;;;;17.88;14.25;;;;;;;9.22;100.00;97970.44;10358052;28;20128;-84
2022/04/25 13:42:40;;;;;;;16.05;14.32;;;;;;;9.40;100.00;97971.16;10366521;28;20052;-84
2022/04/25 13:47:44;;;;;;;14.45;12.98;;;;;;;9.55;100.00;97965.09;10363444;28;20068;-80
2022/04/25 13:52:47;;;;;;;15.90;14.30;;;;;;;9.64;100.00;97968.66;10361532;28;20936;-84
2022/04/25 13:57:51;;;;;;;15.60;14.00;;;;;;;9.75;100.00;97965.63;10376796;28;20061;-83
2022/04/25 14:03:06;;;;;;;15.23;12.73;;;;;;;9.78;100.00;97967.16;10361070;28;20110;-83
2022/04/25 14:08:11;;;;;;;13.45;12.13;;;;;;;9.87;100.00;97968.84;10362436;28;20089;-82
2022/04/25 14:13:16;;;;;;;13.88;12.50;;;;;;;10.08;100.00;97965.63;10364474;28;20065;-84
2022/04/25 14:18:20;;;;;;;13.13;11.93;;;;;;;10.22;100.00;97961.44;10375579;28;20053;-83
2022/04/25 14:23:23;;;;;;;13.23;12.02;;;;;;;10.32;100.00;97955.84;10379897;28;20155;-82
2022/04/25 14:28:27;;;;;;;14.10;12.73;;;;;;;10.33;100.00;97957.53;10377614;28;20050;-83
2022/04/25 14:33:50;;;;;;;16.50;13.63;;;;;;;10.21;100.00;97961.59;10363419;28;20039;-82
2022/04/25 14:38:54;;;;;;;14.65;13.15;;;;;;;10.18;100.00;97965.47;10378035;28;20073;-80
2022/04/25 14:43:59;;;;;;;13.75;12.35;;;;;;;10.10;100.00;97963.63;10365610;28;20057;-80
2022/04/25 14:49:02;;;;;;;13.00;11.70;;;;;;;10.10;100.00;97960.94;10363739;28;20236;-82
2022/04/25 14:54:25;;;;;;;12.10;11.00;;;;;;;10.15;100.00;97973.88;10366402;28;20113;-80
2022/04/25 14:59:29;;;;;;;12.95;11.75;;;;;;;10.22;100.00;97976.72;10384490;28;20049;-82
2022/04/25 15:04:41;;;;;;;12.77;11.38;;;;;;;10.24;100.00;97972.00;10398699;28;20081;-79
2022/04/25 15:09:45;;;;;;;11.63;10.60;;;;;;;10.13;100.00;97965.97;10378983;28;20114;-85
2022/04/25 15:14:51;;;;;;;12.00;10.82;;;;;;;10.24;100.00;97980.09;10377508;28;20049;-80
2022/04/25 15:19:54;;;;;;;11.63;10.50;;;;;;;10.30;100.00;97982.09;10397227;28;20064;-78
2022/04/25 15:24:58;;;;;;;11.85;10.70;;;;;;;10.40;100.00;97990.03;10394872;28;20858;-81
2022/04/25 15:30:02;;;;;;;11.82;10.73;;;;;;;10.47;100.00;97981.09;10377251;28;20069;-80
2022/04/25 15:35:07;;;;;;;11.50;10.35;;;;;;;10.54;100.00;97983.94;10372714;28;20129;-81
2022/04/25 15:40:12;;;;;;;12.13;10.88;;;;;;;10.54;100.00;97985.78;10372639;28;20077;-80
2022/04/25 15:45:17;;;;;;;12.00;10.90;;;;;;;10.59;100.00;97986.13;10355916;28;20124;-83
2022/04/25 15:50:20;;;;;;;11.68;10.65;;;;;;;10.47;100.00;97989.19;10196275;28;5001054;-79
2022/04/25 16:00:45;;;;;;;10.98;9.88;;;;;;;10.79;100.00;97978.50;10357894;28;20042;-81
2022/04/25 16:05:49;;;;;;;11.13;10.13;;;;;;;10.90;100.00;97985.34;10361081;28;20073;-82
2022/04/25 16:10:52;;;;;;;10.43;9.50;;;;;;;10.97;100.00;97980.09;10369381;28;20050;-81
2022/04/25 16:15:58;;;;;;;10.60;9.60;;;;;;;11.04;100.00;97984.63;10384244;28;20465;-81
2022/04/25 16:21:01;;;;;;;10.98;9.93;;;;;;;11.18;100.00;97993.81;10364696;28;20713;-81
2022/04/25 16:26:06;;;;;;;10.60;9.70;;;;;;;11.29;100.00;97987.19;10366033;28;20570;-81
2022/04/25 16:31:10;;;;;;;10.50;9.50;;;;;;;11.31;100.00;97982.47;10369596;28;20046;-81
2022/04/25 16:36:13;;;;;;;9.88;8.90;;;;;;;11.50;100.00;97986.59;10374661;28;20101;-80
2022/04/25 16:41:17;;;;;;;11.15;10.00;;;;;;;11.86;100.00;97985.16;10370177;28;20073;-80
2022/04/25 16:46:21;;;;;;;9.32;8.43;;;;;;;12.21;100.00;97987.44;10372248;28;20057;-80
2022/04/25 16:51:24;;;;;;;9.77;8.82;;;;;;;12.49;100.00;97985.81;10387646;28;20061;-81
2022/04/25 16:56:27;;;;;;;8.93;8.13;;;;;;;12.89;100.00;97979.31;10370493;28;20050;-80
2022/04/25 17:01:31;;;;;;;8.73;7.93;;;;;;;12.90;100.00;97986.41;10361032;28;20112;-81
2022/04/25 17:06:36;;;;;;;9.07;8.27;;;;;;;12.98;100.00;97998.97;10368752;28;20180;-81
2022/04/25 17:11:39;;;;;;;8.80;8.00;;;;;;;12.81;100.00;98003.75;10373034;28;20073;-80
2022/04/25 17:16:43;;;;;;;8.75;7.97;;;;;;;12.60;100.00;98008.84;10363259;28;20050;-78
2022/04/25 17:21:48;;;;;;;9.35;8.40;;;;;;;12.35;100.00;98010.91;10350002;28;20177;-79
2022/04/25 17:26:51;;;;;;;9.15;8.35;;;;;;;12.09;100.00;98016.72;10378282;28;20037;-80
